createdAt,value
2023-05-10T00:00:46.433Z,16.39
2023-05-10T00:01:46.402Z,16.25
2023-05-10T00:02:46.594Z,16.39
2023-05-10T00:03:46.467Z,16.31
2023-05-10T00:04:46.374Z,16.28
2023-05-10T00:05:46.392Z,16.33
2023-05-10T00:06:46.370Z,16.28
2023-05-10T00:07:46.349Z,16.25
2023-05-10T00:08:46.347Z,16.20
2023-05-10T00:09:46.309Z,16.23
2023-05-10T00:10:46.349Z,16.02
2023-05-10T00:11:46.309Z,16.05
2023-05-10T00:12:47.328Z,16.11
2023-05-10T00:13:46.283Z,16.01
2023-05-10T00:14:46.282Z,16.08
2023-05-10T00:15:46.300Z,16.11
2023-05-10T00:16:46.352Z,16.07
2023-05-10T00:17:46.286Z,16.08
2023-05-10T00:18:46.242Z,16.07
2023-05-10T00:19:46.226Z,16.09
2023-05-10T00:20:46.235Z,15.97
2023-05-10T00:21:46.248Z,16.04
2023-05-10T00:22:46.199Z,15.97
2023-05-10T00:23:46.234Z,15.96
2023-05-10T00:24:46.189Z,16.07
2023-05-10T00:25:46.193Z,16.04
2023-05-10T00:26:46.164Z,16.02
2023-05-10T00:27:46.166Z,16.05
2023-05-10T00:28:46.136Z,16.01
2023-05-10T00:29:46.156Z,16.01
2023-05-10T00:30:46.122Z,16.00
2023-05-10T00:31:46.172Z,16.00
2023-05-10T00:32:46.200Z,16.04
2023-05-10T00:33:46.085Z,16.09
2023-05-10T00:34:46.128Z,16.07
2023-05-10T00:35:46.083Z,16.11
2023-05-10T00:36:46.074Z,16.11
2023-05-10T00:37:46.052Z,16.09
2023-05-10T00:38:46.037Z,16.08
2023-05-10T00:39:46.050Z,16.02
2023-05-10T00:40:46.018Z,16.08
2023-05-10T00:41:46.066Z,16.14
2023-05-10T00:42:46.038Z,16.15
2023-05-10T00:43:45.981Z,16.21
2023-05-10T00:44:45.976Z,16.14
2023-05-10T00:45:46.063Z,16.14
2023-05-10T00:46:45.967Z,16.15
2023-05-10T00:47:45.983Z,16.21
2023-05-10T00:48:45.932Z,16.14
2023-05-10T00:49:45.952Z,16.28
2023-05-10T00:50:45.930Z,16.21
2023-05-10T00:51:45.905Z,16.15
2023-05-10T00:52:45.915Z,16.28
2023-05-10T00:53:45.907Z,16.20
2023-05-10T00:54:46.885Z,16.11
2023-05-10T00:55:45.883Z,16.12
2023-05-10T00:56:45.874Z,16.25
2023-05-10T00:57:45.854Z,16.24
2023-05-10T00:58:45.907Z,16.25
2023-05-10T00:59:45.826Z,16.28
2023-05-10T01:00:45.815Z,16.30
2023-05-10T01:01:45.868Z,16.34
2023-05-10T01:02:45.937Z,16.25
2023-05-10T01:03:45.808Z,16.30
2023-05-10T01:04:45.815Z,16.24
2023-05-10T01:05:45.784Z,16.25
2023-05-10T01:06:45.756Z,16.28
2023-05-10T01:07:45.740Z,16.35
2023-05-10T01:13:21.802Z,16.01
2023-05-10T01:14:21.695Z,16.11
2023-05-10T01:15:22.810Z,16.05
2023-05-10T01:16:22.839Z,15.92
2023-05-10T01:17:22.820Z,15.92
2023-05-10T01:18:22.792Z,15.90
2023-05-10T01:19:22.753Z,16.00
2023-05-10T01:20:22.744Z,15.90
2023-05-10T01:21:22.731Z,15.90
2023-05-10T01:22:22.743Z,15.86
2023-05-10T01:23:22.729Z,15.86
2023-05-10T01:24:22.695Z,15.80
2023-05-10T01:25:22.705Z,15.84
2023-05-10T01:26:22.695Z,15.82
2023-05-10T01:27:22.676Z,15.74
2023-05-10T01:28:22.669Z,15.69
2023-05-10T01:29:22.677Z,15.71
2023-05-10T01:30:22.746Z,15.78
2023-05-10T01:31:22.712Z,15.92
2023-05-10T01:32:22.684Z,15.83
2023-05-10T01:33:22.655Z,15.82
2023-05-10T01:34:22.617Z,15.75
2023-05-10T01:35:22.593Z,15.84
2023-05-10T01:36:22.594Z,15.87
2023-05-10T01:37:22.631Z,15.74
2023-05-10T01:38:22.565Z,15.74
2023-05-10T01:39:22.576Z,15.83
2023-05-10T01:40:22.569Z,15.80
2023-05-10T01:41:22.620Z,15.67
2023-05-10T01:42:22.536Z,15.74
2023-05-10T01:43:22.534Z,15.82
2023-05-10T01:44:22.549Z,15.82
2023-05-10T01:45:22.548Z,15.87
2023-05-10T01:46:22.497Z,15.87
2023-05-10T01:47:22.484Z,15.84
2023-05-10T01:48:22.468Z,15.89
2023-05-10T01:49:22.480Z,15.87
2023-05-10T01:50:22.456Z,15.83
2023-05-10T01:51:22.437Z,15.87
2023-05-10T01:52:22.474Z,15.72
2023-05-10T01:53:22.446Z,15.87
2023-05-10T01:54:22.433Z,15.75
2023-05-10T01:55:22.415Z,15.76
2023-05-10T01:56:22.446Z,15.65
2023-05-10T01:57:22.394Z,15.67
2023-05-10T01:58:22.371Z,15.83
2023-05-10T01:59:22.374Z,15.62
2023-05-10T02:00:22.338Z,15.76
2023-05-10T02:01:22.640Z,15.69
2023-05-10T02:02:22.333Z,15.82
2023-05-10T02:03:22.368Z,15.75
2023-05-10T02:04:22.313Z,15.82
2023-05-10T02:05:22.317Z,15.59
2023-05-10T02:06:22.286Z,15.62
2023-05-10T02:07:22.282Z,15.62
2023-05-10T02:08:22.284Z,15.68
2023-05-10T02:09:22.269Z,15.65
2023-05-10T02:10:22.235Z,15.71
2023-05-10T02:11:22.309Z,15.71
2023-05-10T02:12:22.220Z,15.71
2023-05-10T02:13:22.256Z,15.74
2023-05-10T02:14:22.200Z,15.65
2023-05-10T02:15:22.191Z,15.71
2023-05-10T02:16:22.305Z,15.65
2023-05-10T02:17:22.166Z,15.69
2023-05-10T02:18:22.157Z,15.75
2023-05-10T02:19:22.149Z,15.71
2023-05-10T02:20:22.135Z,15.64
2023-05-10T02:21:22.146Z,15.80
2023-05-10T02:22:22.169Z,15.74
2023-05-10T02:23:22.125Z,15.76
2023-05-10T02:24:22.097Z,15.78
2023-05-10T02:25:22.094Z,15.71
2023-05-10T02:26:22.115Z,15.68
2023-05-10T02:27:22.061Z,15.71
2023-05-10T02:28:22.064Z,15.72
2023-05-10T02:29:22.073Z,15.75
2023-05-10T02:30:22.072Z,15.75
2023-05-10T02:31:22.106Z,15.69
2023-05-10T02:32:22.029Z,15.60
2023-05-10T02:33:22.003Z,15.64
2023-05-10T02:34:22.015Z,15.67
2023-05-10T02:35:22.018Z,15.67
2023-05-10T02:36:21.994Z,15.67
2023-05-10T02:37:21.973Z,15.69
2023-05-10T02:38:21.993Z,15.68
2023-05-10T02:39:21.933Z,15.60
2023-05-10T02:40:21.959Z,15.72
2023-05-10T02:41:21.967Z,15.80
2023-05-10T02:42:22.921Z,15.83
2023-05-10T02:43:21.975Z,15.82
2023-05-10T02:44:21.886Z,15.78
2023-05-10T02:45:21.877Z,15.80
2023-05-10T02:46:21.917Z,15.57
2023-05-10T02:47:21.857Z,15.46
2023-05-10T02:48:21.870Z,15.39
2023-05-10T02:49:21.855Z,15.34
2023-05-10T02:50:21.840Z,15.32
2023-05-10T02:51:21.824Z,15.29
2023-05-10T02:52:21.833Z,15.32
2023-05-10T02:53:21.837Z,15.36
2023-05-10T02:54:21.800Z,15.39
2023-05-10T02:55:21.804Z,15.46
2023-05-10T02:56:21.796Z,15.41
2023-05-10T02:57:21.774Z,15.46
2023-05-10T02:58:22.796Z,15.41
2023-05-10T02:59:21.750Z,15.28
2023-05-10T03:00:21.737Z,15.28
2023-05-10T03:01:21.756Z,15.17
2023-05-10T03:02:21.719Z,15.14
2023-05-10T03:03:21.713Z,14.94
2023-05-10T03:04:21.755Z,14.91
2023-05-10T03:05:21.679Z,14.88
2023-05-10T03:06:21.667Z,14.75
2023-05-10T03:07:21.721Z,14.61
2023-05-10T03:08:21.655Z,14.68
2023-05-10T03:09:21.659Z,14.70
2023-05-10T03:10:21.659Z,14.65
2023-05-10T03:11:21.655Z,14.54
2023-05-10T03:12:21.626Z,14.62
2023-05-10T03:13:21.678Z,14.58
2023-05-10T03:14:21.616Z,14.55
2023-05-10T03:15:21.616Z,14.58
2023-05-10T03:16:21.627Z,14.47
2023-05-10T03:17:21.609Z,14.55
2023-05-10T03:18:21.561Z,14.35
2023-05-10T03:19:21.562Z,14.43
2023-05-10T03:20:21.576Z,14.36
2023-05-10T03:21:21.527Z,14.35
2023-05-10T03:22:21.512Z,14.39
2023-05-10T03:23:21.507Z,14.39
2023-05-10T03:24:21.536Z,14.42
2023-05-10T03:25:21.498Z,14.42
2023-05-10T03:26:21.487Z,14.42
2023-05-10T03:27:22.460Z,14.42
2023-05-10T03:28:21.463Z,14.39
2023-05-10T03:29:21.448Z,14.36
2023-05-10T03:30:21.466Z,14.33
2023-05-10T03:31:21.460Z,14.43
2023-05-10T03:32:21.440Z,14.39
2023-05-10T03:33:21.427Z,14.29
2023-05-10T03:34:21.385Z,14.32
2023-05-10T03:35:21.403Z,14.39
2023-05-10T03:36:21.368Z,14.33
2023-05-10T03:37:21.378Z,14.43
2023-05-10T03:38:21.359Z,14.40
2023-05-10T03:39:21.364Z,14.39
2023-05-10T03:40:21.347Z,14.36
2023-05-10T03:41:21.344Z,14.27
2023-05-10T03:42:21.322Z,14.35
2023-05-10T03:43:21.326Z,14.29
2023-05-10T03:44:21.293Z,14.33
2023-05-10T03:45:21.282Z,14.36
2023-05-10T03:46:21.311Z,14.37
2023-05-10T03:47:21.295Z,14.39
2023-05-10T03:48:21.262Z,14.37
2023-05-10T03:49:21.242Z,14.40
2023-05-10T03:50:21.257Z,14.32
2023-05-10T03:51:22.221Z,14.36
2023-05-10T03:52:21.245Z,14.33
2023-05-10T03:53:21.204Z,14.25
2023-05-10T03:54:21.245Z,14.39
2023-05-10T03:55:21.204Z,14.33
2023-05-10T03:56:21.189Z,14.35
2023-05-10T03:57:21.166Z,14.40
2023-05-10T03:58:21.187Z,14.42
2023-05-10T03:59:21.181Z,14.43
2023-05-10T04:00:21.137Z,14.45
2023-05-10T04:01:21.128Z,14.42
2023-05-10T04:02:21.181Z,14.43
2023-05-10T04:03:21.237Z,14.36
2023-05-10T04:04:21.124Z,14.27
2023-05-10T04:05:21.207Z,14.18
2023-05-10T04:06:21.110Z,14.20
2023-05-10T04:07:21.112Z,14.17
2023-05-10T04:08:21.065Z,14.24
2023-05-10T04:09:21.092Z,14.32
2023-05-10T04:10:21.051Z,14.29
2023-05-10T04:11:21.044Z,14.43
2023-05-10T04:12:21.023Z,14.32
2023-05-10T04:13:21.153Z,14.36
2023-05-10T04:14:21.048Z,14.27
2023-05-10T04:15:20.996Z,14.36
2023-05-10T04:16:21.100Z,14.24
2023-05-10T04:17:21.024Z,14.27
2023-05-10T04:18:20.996Z,14.25
2023-05-10T04:19:21.038Z,14.25
2023-05-10T04:20:20.960Z,14.25
2023-05-10T04:21:20.946Z,14.20
2023-05-10T04:22:20.925Z,14.12
2023-05-10T04:23:20.914Z,14.25
2023-05-10T04:24:20.914Z,14.21
2023-05-10T04:25:20.922Z,14.20
2023-05-10T04:26:20.889Z,14.28
2023-05-10T04:27:20.913Z,14.32
2023-05-10T04:28:20.872Z,14.33
2023-05-10T04:29:20.882Z,14.43
2023-05-10T04:30:20.852Z,14.36
2023-05-10T04:31:20.874Z,14.22
2023-05-10T04:32:20.829Z,14.37
2023-05-10T04:34:39.363Z,14.28
2023-05-10T04:35:39.323Z,14.24
2023-05-10T04:36:40.424Z,14.39
2023-05-10T04:37:40.473Z,14.21
2023-05-10T04:38:40.421Z,14.27
2023-05-10T04:39:42.338Z,14.25
2023-05-10T04:40:41.394Z,14.33
2023-05-10T04:41:40.421Z,14.32
2023-05-10T04:42:40.390Z,14.25
2023-05-10T04:43:40.386Z,14.22
2023-05-10T04:44:40.355Z,14.22
2023-05-10T04:45:40.338Z,14.21
2023-05-10T04:46:40.476Z,14.25
2023-05-10T04:47:40.435Z,14.18
2023-05-10T04:48:40.336Z,14.15
2023-05-10T04:49:40.347Z,14.15
2023-05-10T04:50:40.303Z,14.18
2023-05-10T04:51:40.284Z,14.14
2023-05-10T04:52:40.300Z,14.10
2023-05-10T04:53:40.978Z,14.17
2023-05-10T04:54:40.253Z,14.09
2023-05-10T04:55:40.277Z,14.03
2023-05-10T04:56:40.244Z,14.06
2023-05-10T04:57:40.238Z,14.09
2023-05-10T04:58:40.212Z,14.04
2023-05-10T04:59:40.231Z,13.97
2023-05-10T05:00:40.216Z,14.09
2023-05-10T05:01:40.274Z,14.04
2023-05-10T05:02:40.193Z,14.10
2023-05-10T05:03:40.285Z,14.09
2023-05-10T05:04:40.151Z,14.17
2023-05-10T05:05:40.158Z,14.12
2023-05-10T05:06:40.156Z,14.17
2023-05-10T05:07:40.125Z,14.14
2023-05-10T05:08:40.120Z,14.15
2023-05-10T05:09:40.124Z,14.20
2023-05-10T05:10:40.112Z,14.28
2023-05-10T05:11:40.085Z,14.21
2023-05-10T05:12:40.076Z,14.18
2023-05-10T05:13:40.103Z,14.18
2023-05-10T05:14:40.063Z,14.14
2023-05-10T05:15:40.058Z,14.21
2023-05-10T05:16:40.098Z,14.18
2023-05-10T05:17:40.073Z,14.18
2023-05-10T05:18:40.027Z,14.14
2023-05-10T05:19:41.035Z,14.27
2023-05-10T05:20:40.005Z,14.27
2023-05-10T05:21:40.014Z,14.22
2023-05-10T05:22:39.989Z,14.32
2023-05-10T05:23:40.004Z,14.28
2023-05-10T05:24:39.953Z,14.32
2023-05-10T05:25:39.959Z,14.36
2023-05-10T05:26:39.958Z,14.33
2023-05-10T05:27:40.007Z,14.36
2023-05-10T05:28:40.034Z,14.37
2023-05-10T05:29:39.965Z,14.43
2023-05-10T05:30:39.896Z,14.45
2023-05-10T05:31:39.919Z,14.43
2023-05-10T05:32:39.899Z,14.46
2023-05-10T05:33:39.854Z,14.37
2023-05-10T05:34:39.871Z,14.39
2023-05-10T05:35:39.849Z,14.42
2023-05-10T05:36:39.842Z,14.40
2023-05-10T05:37:39.841Z,14.37
2023-05-10T05:38:39.806Z,14.33
2023-05-10T05:39:39.819Z,14.46
2023-05-10T05:40:39.802Z,14.33
2023-05-10T05:41:39.776Z,14.36
2023-05-10T05:42:39.849Z,14.33
2023-05-10T05:43:39.768Z,14.29
2023-05-10T05:44:39.753Z,14.40
2023-05-10T05:45:39.767Z,14.43
2023-05-10T05:46:39.766Z,14.64
2023-05-10T05:47:39.848Z,14.57
2023-05-10T05:48:39.730Z,14.72
2023-05-10T05:49:39.715Z,14.72
2023-05-10T05:50:39.695Z,14.80
2023-05-10T05:51:39.691Z,14.86
2023-05-10T05:52:39.671Z,14.80
2023-05-10T05:53:39.722Z,14.84
2023-05-10T05:54:39.658Z,14.91
2023-05-10T05:55:39.640Z,14.89
2023-05-10T05:56:39.644Z,14.92
2023-05-10T05:57:39.623Z,14.86
2023-05-10T05:58:39.605Z,14.77
2023-05-10T05:59:39.606Z,14.81
2023-05-10T06:00:39.617Z,14.80
2023-05-10T06:01:39.591Z,14.84
2023-05-10T06:02:39.633Z,14.86
2023-05-10T06:03:39.719Z,14.89
2023-05-10T06:04:41.526Z,14.91
2023-05-10T06:05:39.561Z,14.91
2023-05-10T06:06:39.615Z,14.92
2023-05-10T06:07:39.513Z,14.96
2023-05-10T06:08:39.520Z,14.84
2023-05-10T06:09:39.504Z,14.81
2023-05-10T06:10:39.520Z,14.81
2023-05-10T06:11:39.501Z,14.80
2023-05-10T06:12:39.474Z,14.77
2023-05-10T06:13:39.446Z,14.84
2023-05-10T06:14:39.471Z,14.84
2023-05-10T06:15:39.430Z,14.84
2023-05-10T06:16:39.503Z,14.88
2023-05-10T06:17:39.436Z,14.81
2023-05-10T06:18:39.408Z,14.96
2023-05-10T06:19:39.400Z,14.99
2023-05-10T06:20:39.414Z,15.16
2023-05-10T06:21:39.437Z,15.38
2023-05-10T06:22:39.408Z,15.43
2023-05-10T06:23:39.351Z,15.56
2023-05-10T06:24:39.391Z,15.64
2023-05-10T06:25:39.337Z,15.68
2023-05-10T06:26:39.355Z,15.84
2023-05-10T06:27:39.313Z,16.01
2023-05-10T06:28:39.338Z,16.11
2023-05-10T06:29:39.291Z,16.25
2023-05-10T06:30:39.339Z,16.35
2023-05-10T06:31:39.368Z,16.56
2023-05-10T06:32:39.292Z,16.83
2023-05-10T06:33:39.270Z,16.96
2023-05-10T06:34:39.261Z,16.93
2023-05-10T06:35:39.256Z,17.00
2023-05-10T06:36:39.245Z,16.98
2023-05-10T06:37:39.216Z,17.04
2023-05-10T06:38:39.241Z,17.14
2023-05-10T06:39:39.209Z,17.06
2023-05-10T06:40:39.170Z,16.97
2023-05-10T06:41:39.194Z,16.97
2023-05-10T06:42:39.191Z,16.79
2023-05-10T06:43:39.159Z,16.91
2023-05-10T06:44:39.151Z,16.82
2023-05-10T06:45:39.129Z,16.70
2023-05-10T06:46:39.156Z,16.57
2023-05-10T06:47:39.533Z,16.35
2023-05-10T06:48:39.115Z,16.07
2023-05-10T06:49:39.115Z,16.14
2023-05-10T06:50:39.112Z,16.15
2023-05-10T06:51:39.103Z,16.15
2023-05-10T06:52:39.076Z,16.07
2023-05-10T06:53:39.066Z,16.15
2023-05-10T06:54:39.057Z,16.24
2023-05-10T06:55:39.081Z,16.21
2023-05-10T06:56:39.041Z,16.14
2023-05-10T06:57:39.032Z,16.38
2023-05-10T06:58:39.085Z,16.33
2023-05-10T06:59:39.065Z,16.35
2023-05-10T07:00:39.035Z,16.41
2023-05-10T07:01:39.045Z,16.41
2023-05-10T07:02:39.050Z,16.24
2023-05-10T07:03:38.956Z,16.07
2023-05-10T07:04:39.044Z,16.12
2023-05-10T07:05:39.030Z,16.15
2023-05-10T07:06:38.931Z,16.20
2023-05-10T07:07:38.928Z,16.20
2023-05-10T07:08:38.932Z,16.21
2023-05-10T07:09:38.937Z,16.31
2023-05-10T07:10:38.915Z,16.34
2023-05-10T07:11:38.871Z,16.41
2023-05-10T07:12:38.944Z,16.56
2023-05-10T07:13:38.944Z,16.41
2023-05-10T07:14:38.841Z,16.48
2023-05-10T07:15:38.844Z,16.58
2023-05-10T07:16:39.013Z,16.56
2023-05-10T07:17:38.913Z,16.60
2023-05-10T07:18:38.852Z,16.82
2023-05-10T07:19:38.805Z,17.01
2023-05-10T07:20:38.815Z,16.89
2023-05-10T07:21:38.768Z,16.97
2023-05-10T07:22:38.777Z,17.06
2023-05-10T07:23:38.774Z,17.23
2023-05-10T07:24:38.764Z,17.34
2023-05-10T07:25:38.738Z,17.41
2023-05-10T07:26:38.772Z,17.36
2023-05-10T07:27:38.723Z,17.58
2023-05-10T07:28:38.739Z,17.55
2023-05-10T07:29:38.693Z,17.59
2023-05-10T07:30:38.729Z,17.72
2023-05-10T07:31:39.691Z,17.78
2023-05-10T07:32:38.759Z,17.89
2023-05-10T07:33:38.710Z,17.74
2023-05-10T07:34:38.660Z,17.81
2023-05-10T07:35:38.653Z,17.90
2023-05-10T07:36:38.624Z,17.86
2023-05-10T07:37:38.611Z,18.02
2023-05-10T07:38:40.802Z,17.97
2023-05-10T07:39:38.598Z,17.84
2023-05-10T07:40:38.608Z,17.62
2023-05-10T07:41:38.583Z,17.44
2023-05-10T07:42:38.556Z,17.44
2023-05-10T07:43:38.552Z,17.48
2023-05-10T07:44:38.539Z,17.49
2023-05-10T07:45:38.559Z,17.59
2023-05-10T07:46:38.589Z,17.54
2023-05-10T07:47:38.540Z,17.63
2023-05-10T07:48:38.615Z,17.36
2023-05-10T07:49:38.501Z,17.14
2023-05-10T07:50:38.470Z,17.21
2023-05-10T07:51:38.483Z,17.23
2023-05-10T07:52:38.466Z,17.26
2023-05-10T07:53:38.461Z,17.56
2023-05-10T07:54:38.460Z,17.43
2023-05-10T07:55:38.446Z,17.52
2023-05-10T07:56:38.449Z,17.71
2023-05-10T07:57:38.404Z,17.52
2023-05-10T07:58:38.395Z,17.64
2023-05-10T07:59:38.406Z,17.54
2023-05-10T08:00:38.372Z,17.59
2023-05-10T08:01:38.398Z,17.74
2023-05-10T08:02:38.493Z,17.79
2023-05-10T08:03:38.417Z,17.70
2023-05-10T08:04:38.467Z,17.84
2023-05-10T08:05:38.336Z,18.15
2023-05-10T08:06:38.320Z,18.17
2023-05-10T08:07:38.328Z,17.93
2023-05-10T08:08:38.432Z,17.93
2023-05-10T08:09:38.291Z,17.90
2023-05-10T08:10:38.278Z,17.86
2023-05-10T08:11:38.312Z,17.68
2023-05-10T08:12:38.331Z,17.72
2023-05-10T08:13:38.264Z,17.68
2023-05-10T08:14:38.258Z,17.95
2023-05-10T08:15:38.235Z,17.87
2023-05-10T08:16:38.214Z,17.92
2023-05-10T08:17:38.291Z,17.68
2023-05-10T08:18:38.220Z,17.66
2023-05-10T08:19:38.207Z,17.79
2023-05-10T08:20:38.171Z,17.99
2023-05-10T08:21:38.185Z,18.05
2023-05-10T08:22:38.157Z,17.93
2023-05-10T08:23:38.133Z,17.86
2023-05-10T08:24:38.144Z,17.72
2023-05-10T08:25:38.138Z,17.48
2023-05-10T08:26:38.129Z,17.30
2023-05-10T08:27:38.090Z,17.23
2023-05-10T08:28:38.098Z,17.18
2023-05-10T08:29:48.825Z,17.23
2023-05-10T08:30:40.075Z,17.06
2023-05-10T08:31:38.171Z,16.97
2023-05-10T08:32:38.103Z,16.98
2023-05-10T08:33:39.076Z,16.88
2023-05-10T08:34:38.045Z,16.96
2023-05-10T08:35:38.025Z,17.01
2023-05-10T08:36:38.038Z,16.96
2023-05-10T08:37:38.033Z,16.93
2023-05-10T08:38:38.024Z,16.78
2023-05-10T08:39:37.982Z,16.79
2023-05-10T08:40:38.132Z,16.81
2023-05-10T08:41:37.980Z,16.83
2023-05-10T08:42:37.952Z,16.93
2023-05-10T08:43:37.989Z,16.79
2023-05-10T08:44:38.048Z,16.81
2023-05-10T08:45:37.950Z,16.76
2023-05-10T08:46:37.953Z,16.78
2023-05-10T08:47:37.918Z,16.78
2023-05-10T08:48:37.915Z,16.96
2023-05-10T08:49:37.917Z,17.06
2023-05-10T08:50:37.876Z,17.04
2023-05-10T08:51:37.917Z,17.18
2023-05-10T08:52:37.880Z,17.33
2023-05-10T08:53:37.868Z,17.21
2023-05-10T08:54:37.891Z,17.14
2023-05-10T08:55:37.830Z,17.14
2023-05-10T08:56:38.025Z,16.93
2023-05-10T08:57:37.815Z,16.89
2023-05-10T08:58:37.864Z,16.75
2023-05-10T08:59:37.801Z,16.57
2023-05-10T09:00:37.812Z,16.56
2023-05-10T09:01:37.781Z,16.63
2023-05-10T09:02:37.802Z,16.64
2023-05-10T09:03:37.785Z,16.71
2023-05-10T09:04:37.841Z,16.73
2023-05-10T09:05:37.729Z,16.56
2023-05-10T09:06:37.872Z,16.66
2023-05-10T09:07:37.724Z,16.88
2023-05-10T09:08:37.715Z,16.85
2023-05-10T09:09:37.734Z,16.88
2023-05-10T09:10:37.697Z,17.07
2023-05-10T09:11:37.715Z,17.12
2023-05-10T09:12:37.662Z,17.18
2023-05-10T09:13:37.644Z,17.06
2023-05-10T09:14:38.662Z,17.28
2023-05-10T09:15:37.654Z,17.26
2023-05-10T09:16:37.756Z,17.52
2023-05-10T09:17:37.699Z,17.74
2023-05-10T09:18:38.762Z,17.55
2023-05-10T09:19:37.642Z,17.52
2023-05-10T09:20:37.620Z,17.71
2023-05-10T09:21:37.570Z,17.89
2023-05-10T09:22:37.593Z,18.07
2023-05-10T09:23:37.575Z,18.12
2023-05-10T09:24:37.541Z,18.14
2023-05-10T09:25:37.554Z,18.08
2023-05-10T09:26:37.526Z,18.10
2023-05-10T09:27:37.519Z,18.20
2023-05-10T09:28:37.524Z,18.08
2023-05-10T09:29:37.548Z,18.21
2023-05-10T09:30:37.550Z,18.33
2023-05-10T09:31:37.514Z,18.39
2023-05-10T09:32:37.498Z,18.30
2023-05-10T09:33:37.453Z,18.35
2023-05-10T09:34:37.508Z,18.45
2023-05-10T09:35:37.431Z,18.44
2023-05-10T09:36:37.463Z,18.35
2023-05-10T09:37:37.410Z,18.51
2023-05-10T09:38:37.410Z,18.44
2023-05-10T09:39:37.385Z,18.33
2023-05-10T09:40:37.388Z,18.29
2023-05-10T09:41:37.379Z,18.35
2023-05-10T09:42:37.379Z,18.30
2023-05-10T09:43:37.414Z,18.41
2023-05-10T09:44:37.340Z,18.47
2023-05-10T09:45:38.882Z,18.47
2023-05-10T09:46:37.444Z,18.70
2023-05-10T09:47:37.377Z,18.69
2023-05-10T09:48:37.303Z,19.06
2023-05-10T09:49:37.291Z,19.22
2023-05-10T09:50:37.295Z,19.47
2023-05-10T09:51:37.287Z,19.50
2023-05-10T09:52:37.314Z,19.54
2023-05-10T09:53:37.304Z,19.47
2023-05-10T09:54:37.265Z,19.50
2023-05-10T09:55:37.257Z,19.48
2023-05-10T09:56:37.317Z,19.74
2023-05-10T09:57:37.224Z,19.68
2023-05-10T09:58:37.222Z,19.71
2023-05-10T09:59:37.258Z,19.54
2023-05-10T10:00:37.190Z,19.54
2023-05-10T10:01:37.188Z,19.31
2023-05-10T10:02:37.211Z,19.29
2023-05-10T10:03:37.152Z,19.43
2023-05-10T10:04:37.185Z,19.78
2023-05-10T10:05:37.151Z,19.95
2023-05-10T10:06:37.223Z,19.84
2023-05-10T10:07:37.125Z,20.02
2023-05-10T10:08:37.159Z,20.16
2023-05-10T10:09:37.131Z,20.21
2023-05-10T10:10:37.150Z,20.41
2023-05-10T10:11:37.084Z,20.28
2023-05-10T10:12:37.112Z,20.06
2023-05-10T10:13:37.066Z,20.11
2023-05-10T10:14:37.082Z,19.96
2023-05-10T10:15:37.105Z,19.98
2023-05-10T10:16:39.958Z,19.73
2023-05-10T10:17:37.044Z,19.58
2023-05-10T10:18:37.057Z,19.23
2023-05-10T10:19:37.497Z,19.18
2023-05-10T10:20:37.008Z,19.06
2023-05-10T10:21:36.994Z,19.14
2023-05-10T10:22:36.976Z,19.04
2023-05-10T10:23:36.980Z,18.87
2023-05-10T10:24:37.039Z,18.91
2023-05-10T10:25:36.962Z,19.00
2023-05-10T10:26:36.956Z,18.94
2023-05-10T10:27:36.939Z,18.73
2023-05-10T10:28:36.947Z,18.81
2023-05-10T10:29:36.922Z,18.94
2023-05-10T10:30:36.896Z,19.13
2023-05-10T10:31:36.948Z,19.23
2023-05-10T10:32:36.895Z,19.28
2023-05-10T10:34:08.805Z,19.28
2023-05-10T10:34:36.899Z,19.23
2023-05-10T10:35:36.852Z,19.25
2023-05-10T10:36:36.852Z,19.19
2023-05-10T10:37:36.824Z,19.19
2023-05-10T10:38:37.849Z,19.25
2023-05-10T10:39:36.818Z,19.39
2023-05-10T10:40:36.822Z,19.40
2023-05-10T10:41:36.799Z,19.56
2023-05-10T10:42:36.818Z,19.66
2023-05-10T10:43:36.768Z,19.54
2023-05-10T10:44:36.752Z,19.46
2023-05-10T10:45:36.777Z,19.68
2023-05-10T10:46:36.818Z,19.62
2023-05-10T10:47:36.777Z,19.62
2023-05-10T10:48:36.722Z,19.84
2023-05-10T10:49:36.709Z,20.05
2023-05-10T10:50:36.728Z,20.16
2023-05-10T10:51:36.698Z,20.29
2023-05-10T10:52:36.687Z,20.50
2023-05-10T10:53:36.747Z,20.73
2023-05-10T10:54:36.667Z,20.95
2023-05-10T10:55:36.658Z,21.12
2023-05-10T10:56:37.150Z,21.22
2023-05-10T10:57:36.694Z,21.25
2023-05-10T10:58:36.630Z,21.54
2023-05-10T10:59:36.648Z,21.56
2023-05-10T11:00:36.671Z,21.38
2023-05-10T11:01:36.784Z,21.35
2023-05-10T11:02:36.618Z,21.19
2023-05-10T11:03:36.610Z,21.52
2023-05-10T11:04:36.653Z,21.64
2023-05-10T11:05:36.569Z,21.72
2023-05-10T11:06:36.749Z,21.58
2023-05-10T11:07:36.533Z,21.40
2023-05-10T11:08:38.233Z,21.16
2023-05-10T11:09:36.530Z,21.38
2023-05-10T11:10:36.547Z,21.84
2023-05-10T11:11:36.560Z,22.22
2023-05-10T11:12:36.554Z,22.35
2023-05-10T11:13:36.495Z,22.39
2023-05-10T11:14:36.476Z,22.28
2023-05-10T11:15:36.468Z,22.20
2023-05-10T11:16:36.494Z,21.82
2023-05-10T11:17:36.540Z,21.54
2023-05-10T11:18:36.429Z,21.38
2023-05-10T11:19:36.459Z,21.32
2023-05-10T11:20:36.455Z,21.46
2023-05-10T11:21:36.401Z,21.49
2023-05-10T11:22:36.407Z,21.17
2023-05-10T11:23:36.379Z,21.16
2023-05-10T11:24:36.398Z,21.10
2023-05-10T11:25:36.370Z,21.04
2023-05-10T11:26:36.346Z,21.22
2023-05-10T11:27:36.364Z,21.47
2023-05-10T11:28:36.324Z,21.62
2023-05-10T11:29:36.304Z,21.62
2023-05-10T11:30:36.343Z,21.58
2023-05-10T11:31:36.395Z,21.62
2023-05-10T11:32:36.330Z,21.75
2023-05-10T11:33:36.278Z,21.92
2023-05-10T11:34:36.259Z,21.94
2023-05-10T11:35:36.254Z,21.86
2023-05-10T11:36:36.269Z,21.65
2023-05-10T11:37:36.251Z,21.56
2023-05-10T11:38:36.257Z,21.61
2023-05-10T11:39:36.247Z,21.52
2023-05-10T11:40:36.203Z,21.16
2023-05-10T11:41:36.200Z,21.03
2023-05-10T11:42:36.216Z,21.13
2023-05-10T11:43:36.224Z,21.16
2023-05-10T11:44:36.191Z,21.07
2023-05-10T11:45:36.187Z,21.16
2023-05-10T11:46:36.216Z,21.19
2023-05-10T11:47:36.242Z,21.27
2023-05-10T11:48:36.161Z,21.32
2023-05-10T11:49:36.140Z,21.50
2023-05-10T11:50:36.159Z,21.35
2023-05-10T11:51:36.093Z,21.35
2023-05-10T11:52:36.099Z,21.38
2023-05-10T11:53:36.092Z,21.25
2023-05-10T11:54:36.113Z,21.29
2023-05-10T11:55:36.195Z,21.56
2023-05-10T11:56:36.047Z,21.49
2023-05-10T11:57:36.049Z,21.71
2023-05-10T11:58:36.036Z,21.71
2023-05-10T11:59:36.024Z,21.71
2023-05-10T12:00:36.009Z,21.82
2023-05-10T12:01:36.017Z,21.98
2023-05-10T12:02:36.007Z,21.69
2023-05-10T12:03:36.045Z,21.47
2023-05-10T12:04:35.979Z,21.47
2023-05-10T12:05:35.950Z,21.53
2023-05-10T12:06:35.982Z,21.50
2023-05-10T12:07:36.027Z,21.27
2023-05-10T12:08:35.922Z,21.25
2023-05-10T12:09:43.656Z,21.42
2023-05-10T12:10:36.941Z,21.52
2023-05-10T12:11:35.893Z,21.58
2023-05-10T12:12:35.940Z,21.43
2023-05-10T12:13:35.887Z,21.56
2023-05-10T12:14:35.872Z,21.52
2023-05-10T12:15:35.894Z,21.47
2023-05-10T12:16:36.981Z,21.44
2023-05-10T12:17:35.873Z,21.25
2023-05-10T12:18:35.853Z,21.19
2023-05-10T12:19:35.829Z,21.14
2023-05-10T12:20:35.858Z,21.14
2023-05-10T12:21:35.823Z,21.19
2023-05-10T12:22:35.784Z,21.07
2023-05-10T12:23:35.828Z,21.03
2023-05-10T12:24:35.789Z,21.12
2023-05-10T12:25:35.760Z,20.95
2023-05-10T12:26:35.748Z,20.95
2023-05-10T12:27:35.779Z,21.01
2023-05-10T12:28:35.743Z,20.92
2023-05-10T12:29:35.746Z,20.91
2023-05-10T12:30:35.731Z,20.74
2023-05-10T12:31:35.768Z,20.85
2023-05-10T12:32:35.743Z,20.97
2023-05-10T12:33:35.708Z,21.07
2023-05-10T12:34:35.670Z,20.98
2023-05-10T12:35:35.669Z,20.97
2023-05-10T12:36:35.655Z,21.12
2023-05-10T12:37:35.653Z,21.10
2023-05-10T12:38:35.627Z,20.95
2023-05-10T12:39:35.637Z,20.80
2023-05-10T12:40:35.636Z,20.62
2023-05-10T12:41:35.602Z,20.52
2023-05-10T12:42:35.634Z,20.58
2023-05-10T12:43:35.586Z,20.61
2023-05-10T12:44:35.590Z,20.66
2023-05-10T12:45:35.604Z,20.84
2023-05-10T12:46:35.610Z,20.72
2023-05-10T12:47:35.607Z,20.74
2023-05-10T12:48:35.530Z,20.76
2023-05-10T12:49:35.532Z,20.64
2023-05-10T12:50:35.523Z,20.31
2023-05-10T12:51:35.508Z,20.14
2023-05-10T12:52:35.537Z,19.88
2023-05-10T12:53:35.482Z,19.92
2023-05-10T12:54:35.468Z,19.84
2023-05-10T12:55:35.509Z,19.76
2023-05-10T12:56:36.140Z,19.65
2023-05-10T12:57:35.463Z,19.43
2023-05-10T12:58:36.243Z,19.21